createdAt,value
2019-04-03T00:00:40.357Z,4.70
2019-04-03T00:03:08.400Z,5.73
2019-04-03T00:05:36.438Z,7.30
2019-04-03T00:08:06.071Z,7.17
2019-04-03T00:10:35.868Z,6.47
2019-04-03T00:13:04.211Z,7.30
2019-04-03T00:15:32.343Z,6.57
2019-04-03T00:18:00.394Z,5.83
2019-04-03T00:20:28.489Z,5.37
2019-04-03T00:22:56.534Z,5.40
2019-04-03T00:25:24.571Z,7.07
2019-04-03T00:27:52.970Z,8.17
2019-04-03T00:30:22.454Z,8.80
2019-04-03T00:32:53.156Z,6.93
2019-04-03T00:35:23.141Z,8.23
2019-04-03T00:37:52.979Z,7.83
2019-04-03T00:40:20.086Z,7.23
2019-04-03T00:42:48.129Z,6.63
2019-04-03T00:45:16.218Z,5.93
2019-04-03T00:47:44.266Z,5.87
2019-04-03T00:50:12.347Z,8.67
2019-04-03T00:52:40.447Z,5.43
2019-04-03T00:55:08.954Z,5.17
2019-04-03T00:57:37.083Z,6.77
2019-04-03T01:00:09.522Z,8.03
2019-04-03T01:02:37.529Z,6.50
2019-04-03T01:05:05.639Z,6.23
2019-04-03T01:07:33.674Z,6.50
2019-04-03T01:10:01.814Z,10.30
2019-04-03T01:12:31.246Z,6.43
2019-04-03T01:15:01.448Z,7.57
2019-04-03T01:17:29.431Z,7.40
2019-04-03T01:19:57.491Z,8.83
2019-04-03T01:22:25.534Z,6.23
2019-04-03T01:24:53.563Z,7.20
2019-04-03T01:27:21.617Z,5.67
2019-04-03T01:29:49.729Z,7.17
2019-04-03T01:32:17.877Z,6.27
2019-04-03T01:34:47.680Z,6.50
2019-04-03T01:37:16.794Z,5.23
2019-04-03T01:39:45.588Z,7.40
2019-04-03T01:42:13.622Z,5.53
2019-04-03T01:44:41.670Z,6.10
2019-04-03T01:47:09.857Z,8.40
2019-04-03T01:49:37.958Z,7.97
2019-04-03T01:52:07.388Z,9.70
2019-04-03T01:54:35.606Z,6.73
2019-04-03T01:57:06.019Z,6.33
2019-04-03T01:59:33.411Z,6.17
2019-04-03T02:02:01.455Z,7.07
2019-04-03T02:04:29.510Z,6.00
2019-04-03T02:06:57.568Z,6.80
2019-04-03T02:09:25.618Z,7.07
2019-04-03T02:11:53.646Z,9.73
2019-04-03T02:14:22.180Z,6.70
2019-04-03T02:16:50.224Z,5.97
2019-04-03T02:19:19.970Z,7.03
2019-04-03T02:21:48.262Z,7.87
2019-04-03T02:24:16.342Z,6.17
2019-04-03T02:26:44.434Z,7.07
2019-04-03T02:29:12.482Z,8.43
2019-04-03T02:31:40.712Z,5.93
2019-04-03T02:34:08.761Z,6.23
2019-04-03T02:36:37.019Z,6.83
2019-04-03T02:39:05.495Z,5.63
2019-04-03T02:41:36.793Z,8.27
2019-04-03T02:44:04.019Z,5.97
2019-04-03T02:46:32.214Z,6.23
2019-04-03T02:49:00.253Z,8.53
2019-04-03T02:51:29.496Z,7.20
2019-04-03T02:54:01.513Z,6.73
2019-04-03T02:56:27.456Z,6.27
2019-04-03T02:58:55.727Z,7.57
2019-04-03T03:01:23.944Z,5.60
2019-04-03T03:03:52.055Z,9.40
2019-04-03T03:06:20.594Z,8.30
2019-04-03T03:08:48.720Z,7.27
2019-04-03T03:11:17.198Z,6.00
2019-04-03T03:13:45.489Z,8.53
2019-04-03T03:16:14.550Z,7.30
2019-04-03T03:18:43.586Z,8.57
2019-04-03T03:21:13.856Z,6.13
2019-04-03T03:23:42.423Z,6.73
2019-04-03T03:26:10.531Z,8.10
2019-04-03T03:28:38.585Z,5.80
2019-04-03T03:31:07.872Z,5.93
2019-04-03T03:33:40.067Z,8.20
2019-04-03T03:36:07.090Z,10.07
2019-04-03T03:38:38.223Z,7.57
2019-04-03T03:41:05.245Z,6.20
2019-04-03T03:43:37.116Z,8.30
2019-04-03T03:46:04.319Z,8.23
2019-04-03T03:48:32.887Z,6.57
2019-04-03T03:51:02.515Z,6.23
2019-04-03T03:53:31.315Z,6.83
2019-04-03T03:56:00.705Z,8.90
2019-04-03T03:58:30.165Z,6.50
2019-04-03T04:01:00.471Z,9.80
2019-04-03T04:03:29.353Z,7.03
2019-04-03T04:05:57.390Z,5.63
2019-04-03T04:08:25.444Z,6.13
2019-04-03T04:10:58.142Z,7.07
2019-04-03T04:13:23.318Z,9.23
2019-04-03T04:15:51.620Z,6.20
2019-04-03T04:18:22.387Z,6.50
2019-04-03T04:20:49.539Z,7.23
2019-04-03T04:23:17.587Z,7.30
2019-04-03T04:25:45.634Z,9.00
2019-04-03T04:28:13.815Z,8.73
2019-04-03T04:30:43.681Z,9.30
2019-04-03T04:33:11.703Z,9.43
2019-04-03T04:35:39.918Z,7.30
2019-04-03T04:38:07.986Z,7.03
2019-04-03T04:40:36.071Z,7.87
2019-04-03T04:43:04.443Z,10.33
2019-04-03T04:45:34.737Z,9.50
2019-04-03T04:48:02.946Z,6.60
2019-04-03T04:50:31.003Z,9.97
2019-04-03T04:52:59.470Z,9.50
2019-04-03T04:55:30.399Z,7.57
2019-04-03T04:57:57.600Z,8.43
2019-04-03T05:00:25.629Z,8.93
2019-04-03T05:02:53.678Z,8.50
2019-04-03T05:05:21.969Z,7.70
2019-04-03T05:07:50.022Z,8.33
2019-04-03T05:10:18.166Z,9.03
2019-04-03T05:12:46.194Z,11.63
2019-04-03T05:15:14.243Z,7.93
2019-04-03T05:17:42.287Z,8.53
2019-04-03T05:20:10.447Z,10.20
2019-04-03T05:22:38.501Z,8.17
2019-04-03T05:25:06.597Z,8.43
2019-04-03T05:27:34.819Z,9.13
2019-04-03T05:30:06.078Z,9.10
2019-04-03T05:32:33.739Z,7.37
2019-04-03T05:35:01.800Z,7.77
2019-04-03T05:37:29.938Z,6.43
2019-04-03T05:39:57.981Z,6.87
2019-04-03T05:42:26.962Z,8.57
2019-04-03T05:44:56.028Z,8.20
2019-04-03T05:47:24.387Z,9.33
2019-04-03T05:49:55.462Z,9.10
2019-04-03T05:52:22.231Z,7.57
2019-04-03T05:54:50.272Z,9.93
2019-04-03T05:57:18.343Z,9.40
2019-04-03T05:59:59.032Z,6.97
2019-04-03T06:02:19.991Z,10.03
2019-04-03T06:04:46.052Z,8.80
2019-04-03T06:07:14.129Z,8.93
2019-04-03T06:09:42.184Z,10.67
2019-04-03T06:12:12.999Z,7.70
2019-04-03T06:14:40.277Z,10.33
2019-04-03T06:17:08.340Z,8.17
2019-04-03T06:19:39.195Z,7.77
2019-04-03T06:22:06.154Z,11.80
2019-04-03T06:24:34.208Z,8.77
2019-04-03T06:27:02.258Z,8.97
2019-04-03T06:29:30.386Z,8.03
2019-04-03T06:31:58.746Z,9.60
2019-04-03T06:34:26.905Z,10.33
2019-04-03T06:36:54.919Z,9.63
2019-04-03T06:39:24.191Z,8.40
2019-04-03T06:41:52.407Z,10.33
2019-04-03T06:44:22.654Z,8.47
2019-04-03T06:46:50.238Z,9.13
2019-04-03T06:49:18.284Z,9.03
2019-04-03T06:51:50.989Z,9.17
2019-04-03T06:54:19.069Z,6.40
2019-04-03T06:56:47.118Z,6.43
2019-04-03T06:59:16.915Z,8.53
2019-04-03T07:01:45.338Z,9.97
2019-04-03T07:04:13.476Z,7.10
2019-04-03T07:06:44.291Z,8.70
2019-04-03T07:09:22.074Z,8.60
2019-04-03T07:11:43.208Z,8.30
2019-04-03T07:14:11.121Z,7.80
2019-04-03T07:16:39.243Z,8.13
2019-04-03T07:19:08.444Z,7.23
2019-04-03T07:21:36.773Z,8.07
2019-04-03T07:24:04.879Z,6.93
2019-04-03T07:26:33.647Z,9.03
2019-04-03T07:29:02.693Z,7.47
2019-04-03T07:31:30.754Z,7.53
2019-04-03T07:34:01.916Z,7.10
2019-04-03T07:36:28.590Z,8.10
2019-04-03T07:38:58.574Z,7.50
2019-04-03T07:41:26.405Z,9.97
2019-04-03T07:43:54.455Z,9.27
2019-04-03T07:46:22.512Z,9.37
2019-04-03T07:48:50.582Z,8.67
2019-04-03T07:51:19.563Z,7.77
2019-04-03T07:53:50.220Z,7.30
2019-04-03T07:56:17.773Z,6.70
2019-04-03T07:58:45.794Z,6.93
2019-04-03T08:01:14.252Z,5.60
2019-04-03T08:03:43.058Z,6.10
2019-04-03T08:06:11.172Z,5.83
2019-04-03T08:08:39.559Z,8.23
2019-04-03T08:11:07.823Z,6.37
2019-04-03T08:13:38.135Z,8.07
2019-04-03T08:16:05.690Z,6.97
2019-04-03T08:18:33.726Z,6.43
2019-04-03T08:21:02.323Z,6.07
2019-04-03T08:23:30.430Z,7.53
2019-04-03T08:25:58.525Z,4.83
2019-04-03T08:28:29.651Z,5.53
2019-04-03T08:30:56.380Z,4.77
2019-04-03T08:33:27.346Z,5.47
2019-04-03T08:35:54.458Z,5.47
2019-04-03T08:38:22.747Z,6.27
2019-04-03T08:40:52.386Z,6.23
2019-04-03T08:43:21.108Z,4.60
2019-04-03T08:45:49.537Z,5.57
2019-04-03T08:48:18.156Z,5.77
2019-04-03T08:50:46.778Z,4.87
2019-04-03T08:53:14.855Z,6.97
2019-04-03T08:55:43.975Z,8.67
2019-04-03T08:58:12.700Z,10.47
2019-04-03T09:00:41.320Z,8.77
2019-04-03T09:03:09.388Z,8.93
2019-04-03T09:05:37.538Z,9.00
2019-04-03T09:08:05.564Z,8.07
2019-04-03T09:10:36.473Z,8.23
2019-04-03T09:13:16.038Z,11.17
2019-04-03T09:15:33.199Z,8.60
2019-04-03T09:18:01.246Z,11.40
2019-04-03T09:20:29.279Z,8.93
2019-04-03T09:22:57.351Z,10.87
2019-04-03T09:25:25.395Z,11.73
2019-04-03T09:27:53.434Z,12.07
2019-04-03T09:30:21.691Z,8.87
2019-04-03T09:32:49.794Z,12.60
2019-04-03T09:35:17.842Z,7.90
2019-04-03T09:37:46.641Z,7.17
2019-04-03T09:40:17.263Z,6.07
2019-04-03T09:42:44.701Z,7.00
2019-04-03T09:45:13.020Z,6.20
2019-04-03T09:47:41.095Z,7.27
2019-04-03T09:50:09.849Z,5.53
2019-04-03T09:52:46.146Z,6.67
2019-04-03T09:55:07.834Z,5.83
2019-04-03T09:57:35.939Z,5.93
2019-04-03T10:00:05.526Z,6.17
2019-04-03T10:02:35.992Z,5.20
2019-04-03T10:05:05.848Z,7.40
2019-04-03T10:07:36.639Z,7.10
2019-04-03T10:10:05.245Z,5.50
2019-04-03T10:12:33.375Z,4.67
2019-04-03T10:15:01.832Z,6.20
2019-04-03T10:17:30.033Z,6.00
2019-04-03T10:19:58.098Z,5.13
2019-04-03T10:22:26.317Z,3.40
2019-04-03T10:24:54.422Z,3.97
2019-04-03T10:27:22.495Z,3.03
2019-04-03T10:29:50.819Z,4.00
2019-04-03T10:32:19.277Z,1.93
2019-04-03T10:34:48.470Z,0.90
2019-04-03T10:37:16.591Z,0.97
2019-04-03T10:39:44.972Z,1.33
2019-04-03T10:42:13.068Z,1.20
2019-04-03T10:44:41.116Z,0.93
2019-04-03T10:47:09.155Z,2.67
2019-04-03T10:49:37.256Z,0.60
2019-04-03T10:52:05.338Z,0.20
2019-04-03T10:54:33.398Z,0.43
2019-04-03T10:57:03.405Z,1.90
2019-04-03T10:59:31.647Z,3.70
2019-04-03T11:01:59.810Z,0.30
2019-04-03T11:04:28.230Z,0.80
2019-04-03T11:06:56.401Z,1.03
2019-04-03T11:09:24.587Z,1.23
2019-04-03T11:11:52.846Z,0.20
2019-04-03T11:14:20.898Z,0.40
2019-04-03T11:16:48.960Z,1.60
2019-04-03T11:19:19.438Z,1.80
2019-04-03T11:21:46.796Z,0.40
2019-04-03T11:24:14.838Z,0.90
2019-04-03T11:26:42.977Z,0.67
2019-04-03T11:29:11.094Z,1.03
2019-04-03T11:31:41.899Z,1.60
2019-04-03T11:34:08.974Z,0.60
2019-04-03T11:36:37.442Z,0.33
2019-04-03T11:39:13.462Z,0.70
2019-04-03T11:41:37.137Z,1.90
2019-04-03T11:44:05.290Z,0.50
2019-04-03T11:46:34.551Z,0.40
2019-04-03T11:49:02.594Z,1.13
2019-04-03T11:51:33.797Z,0.30
2019-04-03T11:54:01.127Z,0.40
2019-04-03T11:56:29.220Z,0.37
2019-04-03T11:58:57.408Z,1.03
2019-04-03T12:01:25.503Z,0.30
2019-04-03T12:03:53.797Z,0.20
2019-04-03T12:06:22.238Z,1.13
2019-04-03T12:08:50.355Z,0.20
2019-04-03T12:11:18.429Z,0.27
2019-04-03T12:13:46.737Z,0.23
2019-04-03T12:16:14.928Z,0.30
2019-04-03T12:18:43.306Z,0.80
2019-04-03T12:21:13.673Z,0.63
2019-04-03T12:23:41.126Z,0.30
2019-04-03T12:26:11.346Z,0.80
2019-04-03T12:28:38.951Z,1.20
2019-04-03T12:31:07.307Z,0.70
2019-04-03T12:33:35.393Z,1.00
2019-04-03T12:36:06.085Z,0.40
2019-04-03T12:38:33.250Z,0.50
2019-04-03T12:41:03.767Z,0.27
2019-04-03T12:43:31.075Z,0.23
2019-04-03T12:46:01.961Z,1.07
2019-04-03T12:48:29.242Z,0.70
2019-04-03T12:50:59.264Z,0.40
2019-04-03T12:53:27.193Z,0.23
2019-04-03T12:55:57.032Z,0.33
2019-04-03T12:58:25.028Z,0.70
2019-04-03T13:00:53.406Z,1.07
2019-04-03T13:03:23.567Z,0.40
2019-04-03T13:05:51.712Z,0.83
2019-04-03T13:08:21.344Z,0.57
2019-04-03T13:10:49.746Z,0.60
2019-04-03T13:13:18.148Z,1.17
2019-04-03T13:15:46.199Z,0.83
2019-04-03T13:18:14.241Z,0.87
2019-04-03T13:20:42.587Z,0.40
2019-04-03T13:23:10.960Z,0.73
2019-04-03T13:25:40.395Z,0.70
2019-04-03T13:28:08.457Z,1.63
2019-04-03T13:30:36.823Z,3.10
2019-04-03T13:33:06.616Z,1.47
2019-04-03T13:35:34.687Z,0.80
2019-04-03T13:38:02.768Z,1.37
2019-04-03T13:40:30.976Z,2.40
2019-04-03T13:42:59.047Z,1.40
2019-04-03T13:45:27.215Z,1.63
2019-04-03T13:47:55.370Z,2.00
2019-04-03T13:50:24.021Z,0.77
2019-04-03T13:52:52.369Z,1.23
2019-04-03T13:55:20.939Z,2.00
2019-04-03T13:57:50.244Z,2.10
2019-04-03T14:00:22.599Z,1.10
2019-04-03T14:02:48.394Z,1.30
2019-04-03T14:05:16.684Z,1.30
2019-04-03T14:07:44.977Z,1.70
2019-04-03T14:10:13.100Z,2.73
2019-04-03T14:12:44.344Z,1.33
2019-04-03T14:15:11.186Z,2.23
2019-04-03T14:17:39.692Z,2.03
2019-04-03T14:20:08.810Z,2.20
2019-04-03T14:22:37.401Z,2.50
2019-04-03T14:25:17.893Z,1.60
2019-04-03T14:27:36.251Z,1.77
2019-04-03T14:30:11.059Z,1.43
2019-04-03T14:32:38.063Z,2.37
2019-04-03T14:35:38.241Z,1.87
2019-04-03T14:37:36.422Z,1.70
2019-04-03T14:40:05.710Z,2.53
2019-04-03T14:42:34.099Z,1.47
2019-04-03T14:45:02.426Z,1.97
2019-04-03T14:47:31.037Z,2.33
2019-04-03T14:49:59.123Z,2.37
2019-04-03T14:52:27.536Z,2.50
2019-04-03T14:54:56.772Z,3.20
2019-04-03T14:57:25.968Z,2.63
2019-04-03T14:59:54.080Z,1.73
2019-04-03T15:02:23.871Z,2.70
2019-04-03T15:04:52.226Z,2.07
2019-04-03T15:07:20.327Z,2.37
2019-04-03T15:09:48.403Z,2.77
2019-04-03T15:12:16.798Z,2.53
2019-04-03T15:14:45.000Z,1.90
2019-04-03T15:17:13.090Z,2.20
2019-04-03T15:19:41.333Z,2.00
2019-04-03T15:22:09.377Z,3.67
2019-04-03T15:24:37.424Z,2.63
2019-04-03T15:27:05.636Z,1.97
2019-04-03T15:29:36.189Z,2.73
2019-04-03T15:32:03.565Z,2.47
2019-04-03T15:34:31.978Z,3.70
2019-04-03T15:37:00.070Z,6.80
2019-04-03T15:39:28.115Z,2.80
2019-04-03T15:41:56.640Z,2.53
2019-04-03T15:44:27.394Z,6.57
2019-04-03T15:46:54.459Z,3.00
2019-04-03T15:49:25.610Z,3.37
2019-04-03T15:51:52.970Z,6.67
2019-04-03T15:54:21.347Z,2.70
2019-04-03T15:56:49.758Z,2.70
2019-04-03T15:59:17.854Z,3.50
2019-04-03T16:01:45.906Z,4.20
2019-04-03T16:04:13.956Z,5.90
2019-04-03T16:06:42.006Z,4.73
2019-04-03T16:09:10.264Z,3.97
2019-04-03T16:11:38.395Z,5.53
2019-04-03T16:14:06.435Z,3.23
2019-04-03T16:16:34.775Z,3.33
2019-04-03T16:19:02.876Z,2.33
2019-04-03T16:21:30.983Z,2.23
2019-04-03T16:23:59.463Z,2.13
2019-04-03T16:26:28.146Z,7.57
2019-04-03T16:28:57.068Z,2.57
2019-04-03T16:31:25.306Z,3.30
2019-04-03T16:33:53.765Z,3.27
2019-04-03T16:36:22.074Z,3.17
2019-04-03T16:38:50.488Z,2.80
2019-04-03T16:41:18.949Z,6.03
2019-04-03T16:43:47.018Z,2.20
2019-04-03T16:46:15.066Z,3.53
2019-04-03T16:48:43.308Z,2.10
2019-04-03T16:51:12.510Z,3.83
2019-04-03T16:53:43.558Z,3.73
2019-04-03T16:56:11.822Z,3.17
2019-04-03T16:58:40.357Z,3.87
2019-04-03T17:01:08.753Z,4.57
2019-04-03T17:03:36.799Z,3.83
2019-04-03T17:06:04.969Z,4.17
2019-04-03T17:08:33.013Z,3.23
2019-04-03T17:11:01.747Z,3.20
2019-04-03T17:13:29.822Z,5.13
2019-04-03T17:15:57.858Z,4.07
2019-04-03T17:18:25.997Z,4.03
2019-04-03T17:20:56.207Z,4.10
2019-04-03T17:23:23.802Z,3.87
2019-04-03T17:25:52.381Z,4.63
2019-04-03T17:28:20.997Z,4.97
2019-04-03T17:30:50.916Z,6.80
2019-04-03T17:33:19.036Z,3.60
2019-04-03T17:35:48.290Z,6.17
2019-04-03T17:38:16.590Z,3.07
2019-04-03T17:40:44.662Z,3.43
2019-04-03T17:43:13.081Z,2.90
2019-04-03T17:45:41.630Z,3.33
2019-04-03T17:48:09.670Z,4.40
2019-04-03T17:50:37.719Z,2.03
2019-04-03T17:53:06.560Z,4.23
2019-04-03T17:55:35.085Z,2.60
2019-04-03T17:58:03.248Z,6.43
2019-04-03T18:00:31.274Z,3.33
2019-04-03T18:02:59.311Z,2.87
2019-04-03T18:05:27.379Z,3.53
2019-04-03T18:07:58.538Z,3.23
2019-04-03T18:10:25.206Z,4.10
2019-04-03T18:12:53.269Z,3.27
2019-04-03T18:15:21.314Z,2.93
2019-04-03T18:17:49.419Z,3.40
2019-04-03T18:20:17.926Z,4.53
2019-04-03T18:22:45.983Z,3.23
2019-04-03T18:25:14.172Z,3.67
2019-04-03T18:27:42.225Z,5.33
2019-04-03T18:30:11.829Z,4.67
2019-04-03T18:32:40.554Z,4.07
2019-04-03T18:35:09.015Z,4.87
2019-04-03T18:37:37.057Z,4.13
2019-04-03T18:40:05.638Z,3.60
2019-04-03T18:42:34.006Z,6.13
2019-04-03T18:45:02.107Z,4.43
2019-04-03T18:47:40.577Z,3.30
2019-04-03T18:50:02.897Z,6.97
2019-04-03T18:52:29.695Z,5.50
2019-04-03T18:54:57.733Z,5.00
2019-04-03T18:57:25.810Z,4.80
2019-04-03T18:59:56.184Z,8.27
2019-04-03T19:02:23.623Z,6.97
2019-04-03T19:05:01.130Z,7.10
2019-04-03T19:07:21.429Z,5.13
2019-04-03T19:09:49.943Z,7.33
2019-04-03T19:12:19.315Z,5.50
2019-04-03T19:14:47.365Z,5.37
2019-04-03T19:17:15.413Z,4.07
2019-04-03T19:19:43.473Z,6.93
2019-04-03T19:22:11.515Z,5.50
2019-04-03T19:24:39.562Z,6.07
2019-04-03T19:27:07.633Z,10.23
2019-04-03T19:29:36.295Z,5.93
2019-04-03T19:32:04.473Z,4.43
2019-04-03T19:34:32.525Z,6.03
2019-04-03T19:37:02.802Z,7.37
2019-04-03T19:39:30.330Z,7.93
2019-04-03T19:41:58.364Z,8.17
2019-04-03T19:44:26.452Z,8.60
2019-04-03T19:46:54.530Z,6.20
2019-04-03T19:49:22.599Z,6.20
2019-04-03T19:51:51.522Z,5.17
2019-04-03T19:54:19.587Z,5.50
2019-04-03T19:56:47.634Z,6.57
2019-04-03T19:59:15.674Z,3.57
2019-04-03T20:01:43.754Z,4.33
2019-04-03T20:04:11.852Z,3.77
2019-04-03T20:06:39.874Z,4.93
2019-04-03T20:09:08.800Z,4.83
2019-04-03T20:11:36.847Z,4.93
2019-04-03T20:14:05.623Z,4.37
2019-04-03T20:16:33.902Z,3.77
2019-04-03T20:19:01.943Z,6.07
2019-04-03T20:21:30.022Z,4.03
2019-04-03T20:23:58.094Z,3.53
2019-04-03T20:26:26.184Z,6.73
2019-04-03T20:28:56.789Z,5.40
2019-04-03T20:31:23.997Z,3.70
2019-04-03T20:33:52.059Z,4.20
2019-04-03T20:36:20.411Z,4.03
2019-04-03T20:38:48.937Z,3.67
2019-04-03T20:41:16.978Z,3.53
2019-04-03T20:43:47.171Z,3.87
2019-04-03T20:46:14.802Z,3.10
2019-04-03T20:48:42.861Z,4.53
2019-04-03T20:51:12.156Z,3.03
2019-04-03T20:53:40.908Z,2.90
2019-04-03T20:56:08.975Z,3.57
2019-04-03T20:58:40.025Z,6.23
2019-04-03T21:01:07.342Z,4.80
2019-04-03T21:03:35.558Z,4.07
2019-04-03T21:06:03.674Z,2.60
2019-04-03T21:08:32.603Z,2.97
2019-04-03T21:11:02.380Z,2.53
2019-04-03T21:13:30.441Z,4.13
2019-04-03T21:15:58.521Z,4.63
2019-04-03T21:18:26.580Z,3.80
2019-04-03T21:20:55.308Z,3.60
2019-04-03T21:23:23.379Z,4.43
2019-04-03T21:25:51.418Z,2.30
2019-04-03T21:28:19.507Z,3.27
2019-04-03T21:30:47.719Z,2.77
2019-04-03T21:33:17.345Z,2.90
2019-04-03T21:35:45.606Z,2.90
2019-04-03T21:38:13.667Z,2.63
2019-04-03T21:40:41.698Z,3.30
2019-04-03T21:43:09.742Z,3.67
2019-04-03T21:45:38.754Z,3.47
2019-04-03T21:48:07.134Z,5.47
2019-04-03T21:50:35.221Z,3.40
2019-04-03T21:53:03.253Z,4.23
2019-04-03T21:55:34.727Z,3.87
2019-04-03T21:58:02.477Z,4.37
2019-04-03T22:00:39.714Z,5.70
2019-04-03T22:03:07.766Z,3.30
2019-04-03T22:05:35.799Z,5.13
2019-04-03T22:08:03.862Z,4.57
2019-04-03T22:10:33.053Z,3.83
2019-04-03T22:13:01.644Z,5.07
2019-04-03T22:15:29.690Z,3.80
2019-04-03T22:17:57.737Z,4.13
2019-04-03T22:20:25.790Z,3.60
2019-04-03T22:22:53.842Z,6.63
2019-04-03T22:25:21.902Z,5.43
2019-04-03T22:27:49.942Z,5.10
2019-04-03T22:30:18.006Z,3.37
2019-04-03T22:32:46.047Z,4.43
2019-04-03T22:35:14.097Z,4.50
2019-04-03T22:37:42.149Z,11.47
2019-04-03T22:40:10.868Z,7.20
2019-04-03T22:42:39.008Z,6.40
2019-04-03T22:45:07.121Z,8.70
2019-04-03T22:47:35.349Z,6.67
2019-04-03T22:50:05.570Z,6.87
2019-04-03T22:52:33.805Z,7.10
2019-04-03T22:55:01.859Z,8.67
2019-04-03T22:57:29.932Z,7.93
2019-04-03T22:59:57.995Z,7.70
2019-04-03T23:02:26.041Z,9.87
2019-04-03T23:04:54.092Z,8.27
2019-04-03T23:07:22.173Z,7.33
2019-04-03T23:09:50.227Z,6.40
2019-04-03T23:12:18.312Z,7.07
2019-04-03T23:14:46.362Z,7.27
2019-04-03T23:17:14.577Z,6.57
2019-04-03T23:19:42.634Z,6.77
2019-04-03T23:22:10.674Z,5.97
2019-04-03T23:24:38.727Z,6.87
2019-04-03T23:27:06.811Z,6.53
2019-04-03T23:29:36.555Z,5.87
2019-04-03T23:32:04.726Z,6.87
2019-04-03T23:34:32.779Z,6.47
2019-04-03T23:37:00.842Z,6.00
2019-04-03T23:39:28.902Z,6.50
2019-04-03T23:41:56.961Z,5.07
2019-04-03T23:44:25.023Z,7.77
2019-04-03T23:46:53.247Z,8.07
2019-04-03T23:49:21.298Z,6.30
2019-04-03T23:51:49.406Z,7.70
2019-04-03T23:54:17.478Z,6.93
2019-04-03T23:56:45.528Z,7.10
2019-04-03T23:59:13.663Z,7.70
